Flight Track Log - Related Links

Times and Time Zones

All times are in EDT time to prevent confusion due to time zone crossing. See the EJA102 flight status page for this flight to view local times or setup timezone preferences in your user account.


Time Position Orientation Groundspeed Altitude Reporting Facility
EDT Latitude Longitude Course Direction KTS MPH feet Rate Location/Type
Thu 02:22:52 PM 39.0667 -84.4167 131° Southeast 184 212 2,300  Level Cincinnati TRACON
Thu 02:23:40 PM 39.0333 -84.3667 131° Southeast 220 253 3,400 2,000 Climbing Cincinnati TRACON
Thu 02:24:40 PM 39.0667 -84.3167 49° Northeast 222 255 5,900 1,300 Climbing Cincinnati TRACON
Thu 02:25:40 PM 39.1167 -84.3333 346° North 234 269 6,000 467 Climbing Cincinnati TRACON
Thu 02:26:10 PM 39.1472 -84.3472 341° North 234 269 6,600 2,217 Climbing Indianapolis Center
Thu 02:27:12 PM 39.2114 -84.3761 341° North 241 277 9,400 2,129 Climbing Indianapolis Center
Thu 02:28:14 PM 39.2803 -84.4069 341° North 252 290 11,000 1,306 Climbing Indianapolis Center
Thu 02:29:16 PM 39.3656 -84.4439 341° North 300 345 12,100 1,306 Climbing Indianapolis Center
Thu 02:30:18 PM 39.4722 -84.4925 341° North 336 387 13,700 1,452 Climbing Indianapolis Center
Thu 02:31:20 PM 39.5642 -84.5325 341° North 343 395 15,100 1,355 Climbing Indianapolis Center
Thu 02:32:22 PM 39.6564 -84.5736 341° North 345 397 16,500 1,306 Climbing Indianapolis Center
Thu 02:33:24 PM 39.7483 -84.6164 340° North 347 399 17,800 1,355 Climbing Indianapolis Center
Thu 02:34:26 PM 39.8394 -84.6583 341° North 344 396 19,300 1,415 Climbing Indianapolis Center
Thu 02:35:27 PM 39.9306 -84.6992 341° North 341 392 20,700 1,366 Climbing Indianapolis Center
Thu 02:36:29 PM 40.0186 -84.7467 338° Northwest 340 391 22,100 1,355 Climbing Indianapolis Center
Thu 02:37:31 PM 40.0939 -84.8222 322° Northwest 340 391 23,500 1,161 Climbing Indianapolis Center
Thu 02:38:33 PM 40.1792 -84.8839 331° Northwest 354 407 24,500 1,065 Climbing Indianapolis Center
Thu 02:39:35 PM 40.2956 -84.9122 349° North 365 420 25,700 1,065 Climbing Indianapolis Center
Thu 02:40:37 PM 40.3972 -84.9358 350° North 369 425 26,700 968 Climbing Indianapolis Center
Thu 02:41:39 PM 40.4997 -84.9594 350° North 375 432 27,700 919 Climbing Indianapolis Center
Thu 02:42:41 PM 40.6033 -84.9761 353° North 377 434 28,600 1,091 Climbing Indianapolis Center
Thu 02:43:40 PM 40.7119 -84.9897 355° North 374 430 29,900 1,240 Climbing Chicago Center
Thu 02:44:42 PM 40.8128 -85.0025 355° North 367 422 31,100 1,210 Climbing Chicago Center
Thu 02:45:44 PM 40.9111 -85.0161 354° North 360 414 32,400 1,210 Climbing Chicago Center
Thu 02:46:46 PM 41.0078 -85.0306 354° North 353 406 33,600 774 Climbing Chicago Center
Thu 02:47:48 PM 41.1042 -85.0456 353° North 350 403 34,000 194 Climbing Chicago Center
Thu 02:48:50 PM 41.2278 -85.0608 355° North 367 422 34,000  Level Chicago Center
Thu 02:49:52 PM 41.3347 -85.0756 354° North 385 443 34,000  Level Chicago Center
Thu 02:50:55 PM 41.4433 -85.0906 354° North 393 452 34,000  Level Chicago Center
Thu 02:51:57 PM 41.5528 -85.1064 354° North 399 459 34,000  Level Chicago Center
Thu 02:52:59 PM 41.6831 -85.1253 354° North 399 459 34,000  Level Chicago Center
Thu 02:54:01 PM 41.7908 -85.1419 353° North 398 458 34,000 -194 Level Chicago Center
Thu 02:55:03 PM 41.8972 -85.1572 354° North 390 449 33,600 -968 Descending Chicago Center
Thu 02:56:05 PM 42.0111 -85.1725 354° North 389 448 32,000 -774 Descending Chicago Center
Thu 02:57:07 PM 42.1178 -85.1875 354° North 388 447 32,000  Level Chicago Center
Thu 02:58:09 PM 42.2250 -85.2033 354° North 388 447 32,000  Level Chicago Center
Thu 02:59:11 PM 42.3314 -85.2181 354° North 387 445 32,000  Level Chicago Center
Thu 03:00:14 PM 42.4603 -85.2372 354° North 389 448 32,000  Level Chicago Center
Thu 03:01:16 PM 42.5694 -85.2531 354° North 395 455 32,000 -484 Level Chicago Center
Thu 03:02:18 PM 42.6789 -85.2681 354° North 397 457 31,000 -484 Descending Chicago Center
Thu 03:03:20 PM 42.7894 -85.2844 354° North 400 460 31,000  Level Chicago Center
Thu 03:04:22 PM 42.9019 -85.3017 354° North 407 468 31,000  Level Chicago Center
Thu 03:05:24 PM 43.0397 -85.3217 354° North 416 479 31,000  Level Chicago Center
Thu 03:06:26 PM 43.1542 -85.3383 354° North 418 481 31,000  Level Chicago Center
Thu 03:07:28 PM 43.2717 -85.3567 354° North 430 495 31,000 -435 Level Chicago Center
Thu 03:08:30 PM 43.3892 -85.3736 354° North 430 495 30,100 -955 Descending Chicago Center
Thu 03:09:40 PM 43.5281 -85.3933 354° North 426 490 28,900 -917 Descending Minneapolis Center
Thu 03:10:54 PM 43.6447 -85.4111 354° North 425 489 27,900 -1,191 Descending Minneapolis Center
Thu 03:11:56 PM 43.7889 -85.4336 354° North 434 499 26,200 -1,680 Descending Minneapolis Center
Thu 03:12:59 PM 43.9358 -85.4558 354° North 443 510 24,400 -1,728 Descending Minneapolis Center
Thu 03:14:01 PM 44.0547 -85.4722 354° North 437 503 22,600 -1,887 Descending Minneapolis Center
Thu 03:15:03 PM 44.1756 -85.4928 353° North 423 487 20,500 -2,323 Descending Minneapolis Center
Thu 03:16:05 PM 44.2844 -85.5089 354° North 403 464 17,800 -2,806 Descending Minneapolis Center
Thu 03:17:07 PM 44.3811 -85.5250 353° North 359 413 14,700 -3,145 Descending Minneapolis Center
Thu 03:18:09 PM 44.4669 -85.5389 353° North 320 368 11,300 -3,726 Descending Minneapolis Center
Thu 03:19:11 PM 44.5572 -85.5608 350° North 282 325 7,000 -3,774 Descending Minneapolis Center
Thu 03:20:13 PM 44.6292 -85.5778 350° North 271 312 3,500 -1,984 Descending Minneapolis Center
Thu 03:21:15 PM 44.6875 -85.5847 355° North 238 274 2,900 -672 Descending Minneapolis Center
Thu 03:22:18 PM 44.7061 -85.6311 299° West 183 211 2,100 -720 Descending Minneapolis Center
Thu 03:23:20 PM 44.7364 -85.6469 340° North 157 181 1,400 -441 Descending Minneapolis Center
Thu 03:24:34 PM 44.7458 -85.5803 79° East 152 175 1,100 -243 Descending Minneapolis Center

Login

Don't have an account? Register now (free) for customized features, flight alerts, and more!